Time;durP1;ratioP1;P1;durP2;ratioP2;P2;SDS_P1;SDS_P2;PMS_P1;PMS_P2;Temp;Humidity;BMP_temperature;BMP_pressure;BME280_temperature;BME280_humidity;BME280_pressure;Samples;Min_cycle;Max_cycle;Signal;HPM_P1;HPM_P2
2021/12/11 00:02:20;;;;;;;6.20;1.38;;;;;;;7.05;74.46;100725.06;7394875;19;20010;-68
2021/12/11 00:04:51;;;;;;;5.80;0.88;;;;;;;7.04;74.53;100715.56;7391854;19;20010;-67
2021/12/11 00:07:19;;;;;;;11.98;1.60;;;;;;;7.00;74.74;100722.03;7392439;19;20539;-67
2021/12/11 00:09:51;;;;;;;6.13;1.00;;;;;;;6.98;74.98;100719.53;7386701;19;20341;-68
2021/12/11 00:12:31;;;;;;;9.30;1.20;;;;;;;6.95;74.62;100725.03;7390895;19;20041;-69
2021/12/11 00:15:10;;;;;;;6.15;1.05;;;;;;;6.92;74.84;100727.06;7389375;19;20343;-69
2021/12/11 00:17:38;;;;;;;5.95;1.10;;;;;;;6.86;74.71;100720.56;7368292;19;20041;-69
2021/12/11 00:23:42;;;;;;;5.95;0.60;;;;;;;6.82;75.44;100730.47;7392252;19;20014;-68
2021/12/11 00:26:12;;;;;;;6.97;0.70;;;;;;;6.81;75.15;100736.66;7391221;19;20011;-69
2021/12/11 00:28:45;;;;;;;6.97;0.50;;;;;;;6.81;75.24;100736.66;7387417;19;20132;-68
2021/12/11 00:31:13;;;;;;;5.65;0.57;;;;;;;6.81;75.47;100746.28;7389583;19;20003;-69
2021/12/11 00:33:40;;;;;;;3.15;0.50;;;;;;;6.77;75.74;100750.97;7389210;19;20010;-68
2021/12/11 00:36:10;;;;;;;2.92;0.73;;;;;;;6.78;75.83;100749.19;7388895;19;20022;-70
2021/12/11 00:38:39;;;;;;;6.05;0.65;;;;;;;6.79;76.31;100759.50;7390202;19;20006;-68
2021/12/11 00:41:11;;;;;;;7.35;0.60;;;;;;;6.78;76.03;100762.25;7392286;19;20003;-68
2021/12/11 00:43:40;;;;;;;3.83;0.63;;;;;;;6.79;76.23;100753.44;7389878;19;20054;-68
2021/12/11 00:46:11;;;;;;;2.83;0.50;;;;;;;6.79;75.80;100751.66;7392990;19;20039;-69
2021/12/11 00:48:38;;;;;;;6.93;0.57;;;;;;;6.81;75.62;100747.13;7386812;19;20470;-70
2021/12/11 00:51:11;;;;;;;5.75;0.73;;;;;;;6.83;76.43;100747.00;7390684;19;20011;-69
2021/12/11 00:53:44;;;;;;;5.55;0.73;;;;;;;6.82;76.38;100759.25;7388147;19;20015;-68
2021/12/11 00:56:18;;;;;;;5.32;0.50;;;;;;;6.82;76.04;100761.03;7392226;19;20023;-70
2021/12/11 00:58:50;;;;;;;6.40;0.68;;;;;;;6.83;76.10;100760.91;7390676;19;20010;-69
2021/12/11 01:01:22;;;;;;;10.52;0.60;;;;;;;6.84;75.97;100770.41;7390826;19;20010;-69
2021/12/11 01:04:05;;;;;;;4.75;0.80;;;;;;;6.86;76.39;100765.84;7390256;19;20026;-67
2021/12/11 01:06:37;;;;;;;4.68;0.50;;;;;;;6.83;75.81;100767.91;7391334;19;20010;-69
2021/12/11 01:09:09;;;;;;;2.53;0.50;;;;;;;6.84;76.34;100777.41;7390254;19;20046;-69
2021/12/11 01:11:41;;;;;;;4.80;0.90;;;;;;;6.86;77.00;100780.72;7389972;19;20018;-70
2021/12/11 01:14:23;;;;;;;7.45;0.50;;;;;;;6.84;76.62;100788.72;7387980;19;20275;-68
2021/12/11 01:16:59;;;;;;;4.70;0.75;;;;;;;6.81;76.00;100785.50;7388958;19;20470;-69
2021/12/11 01:19:28;;;;;;;6.30;0.93;;;;;;;6.81;76.13;100786.34;7386911;19;20011;-68
2021/12/11 01:21:57;;;;;;;7.00;0.60;;;;;;;6.83;75.72;100800.13;7389803;19;20003;-67
2021/12/11 01:24:43;;;;;;;4.88;0.60;;;;;;;6.86;76.36;100809.47;7388742;19;20014;-69
2021/12/11 01:27:16;;;;;;;5.35;0.50;;;;;;;6.87;76.28;100803.31;7388511;19;20014;-69
2021/12/11 01:29:49;;;;;;;5.80;2.15;;;;;;;6.85;75.83;100811.28;7388633;19;20483;-70
2021/12/11 01:32:17;;;;;;;5.45;0.40;;;;;;;6.85;76.55;100823.53;7386290;19;20014;-68
2021/12/11 01:34:45;;;;;;;7.43;0.70;;;;;;;6.82;76.36;100823.78;7387503;19;20016;-68
2021/12/11 01:37:14;;;;;;;10.85;0.80;;;;;;;6.80;76.76;100829.16;7388096;19;20613;-68
2021/12/11 01:39:41;;;;;;;4.97;0.88;;;;;;;6.78;77.00;100835.47;7391538;19;20014;-68
2021/12/11 01:42:19;;;;;;;14.60;3.17;;;;;;;6.80;77.87;100852.69;7390521;19;20006;-69
2021/12/11 01:44:49;;;;;;;6.63;0.60;;;;;;;6.82;77.58;100853.38;7388598;19;20018;-68
2021/12/11 01:47:20;;;;;;;5.75;0.80;;;;;;;6.81;76.76;100861.34;7388118;19;20022;-69
2021/12/11 01:49:52;;;;;;;9.63;0.80;;;;;;;6.79;76.53;100855.41;7385054;19;20014;-68
2021/12/11 01:52:34;;;;;;;11.23;0.50;;;;;;;6.79;76.41;100861.47;7385724;19;20488;-69
2021/12/11 01:55:07;;;;;;;5.80;0.55;;;;;;;6.75;77.29;100851.41;7390596;19;20022;-69
2021/12/11 01:57:34;;;;;;;4.70;0.40;;;;;;;6.77;76.70;100867.78;7385669;19;20010;-67
2021/12/11 02:00:16;;;;;;;6.78;0.80;;;;;;;6.75;76.41;100861.88;7389241;19;20567;-69
2021/12/11 02:02:49;;;;;;;10.75;1.30;;;;;;;6.76;77.43;100863.50;7388896;19;20018;-68
2021/12/11 02:05:23;;;;;;;4.93;0.57;;;;;;;6.72;76.60;100868.16;7388095;19;20014;-68
2021/12/11 02:07:55;;;;;;;15.23;0.85;;;;;;;6.72;76.85;100864.72;7386374;19;20018;-68
2021/12/11 02:10:27;;;;;;;6.35;0.57;;;;;;;6.70;76.71;100864.88;7388097;19;20026;-69
2021/12/11 02:12:57;;;;;;;9.63;1.00;;;;;;;6.69;76.60;100878.88;7390973;19;20034;-68
2021/12/11 02:15:34;;;;;;;7.35;0.50;;;;;;;6.70;76.99;100885.78;7386830;19;20354;-68
2021/12/11 02:18:11;;;;;;;9.40;0.52;;;;;;;6.72;77.21;100883.03;7388866;19;20011;-68
2021/12/11 02:20:45;;;;;;;3.15;0.50;;;;;;;6.72;77.16;100898.72;7390947;19;20038;-68
2021/12/11 02:23:13;;;;;;;2.78;0.50;;;;;;;6.72;77.23;100893.47;7387500;19;20767;-67
2021/12/11 02:25:46;;;;;;;8.85;1.15;;;;;;;6.75;77.62;100904.53;7387635;19;20027;-68
2021/12/11 02:28:21;;;;;;;4.47;0.57;;;;;;;6.73;76.60;100905.59;7384031;19;20034;-68
2021/12/11 02:31:04;;;;;;;5.57;0.70;;;;;;;6.72;77.22;100903.94;7385339;19;20038;-67
2021/12/11 02:33:35;;;;;;;;;;;;;;;6.70;77.15;100903.25;7391705;19;20098;-69
2021/12/11 02:36:10;;;;;;;7.47;0.80;;;;;;;6.62;76.54;100903.03;7391455;19;19952;-67
2021/12/11 02:38:45;;;;;;;8.45;0.77;;;;;;;6.58;77.20;100907.69;7390616;19;20050;-67
2021/12/11 02:41:19;;;;;;;12.93;2.78;;;;;;;6.55;76.70;100901.88;7394008;19;20345;-69
2021/12/11 02:43:50;;;;;;;5.90;0.60;;;;;;;6.53;77.54;100904.63;7394053;19;20010;-67
2021/12/11 02:46:24;;;;;;;8.73;1.00;;;;;;;6.51;77.20;100903.06;7393324;19;20470;-68
2021/12/11 02:49:04;;;;;;;7.93;0.88;;;;;;;6.51;77.38;100897.84;7390045;19;20074;-67
2021/12/11 02:51:40;;;;;;;6.32;0.82;;;;;;;6.49;77.75;100898.00;7395654;19;20007;-69
2021/12/11 02:54:17;;;;;;;6.88;0.60;;;;;;;6.48;77.90;100906.78;7400023;19;20015;-68
2021/12/11 02:56:53;;;;;;;5.00;0.40;;;;;;;6.45;77.98;100913.06;7391234;19;20006;-67
2021/12/11 02:59:25;;;;;;;11.43;0.50;;;;;;;6.45;78.23;100920.91;7395919;19;20010;-67
2021/12/11 03:02:05;;;;;;;6.75;1.00;;;;;;;6.45;78.57;100920.91;7395058;19;20002;-67
2021/12/11 03:04:38;;;;;;;8.18;0.60;;;;;;;6.45;78.51;100922.69;7392194;19;20014;-68
2021/12/11 03:07:09;;;;;;;8.80;0.88;;;;;;;6.45;78.56;100933.97;7394078;19;20014;-69
2021/12/11 03:09:42;;;;;;;9.65;0.70;;;;;;;6.45;78.67;100939.19;7396217;19;20006;-67
2021/12/11 03:12:11;;;;;;;;;;;;;;;6.48;78.49;100935.53;7393144;19;20034;-67
2021/12/11 03:14:39;;;;;;;4.13;0.68;;;;;;;6.43;78.27;100937.69;7395641;19;19932;-67
2021/12/11 03:17:07;;;;;;;9.10;0.75;;;;;;;6.41;78.25;100932.56;7392799;19;20115;-67
2021/12/11 03:19:37;;;;;;;5.15;0.60;;;;;;;6.43;77.95;100935.06;7391191;19;20106;-67
2021/12/11 03:22:08;;;;;;;5.18;0.40;;;;;;;6.43;78.16;100938.50;7393165;19;20030;-69
2021/12/11 03:24:35;;;;;;;6.85;0.82;;;;;;;6.42;78.19;100938.63;7393407;19;20026;-69
2021/12/11 03:27:03;;;;;;;6.65;0.73;;;;;;;6.42;78.14;100942.06;7393385;19;20010;-69
2021/12/11 03:29:30;;;;;;;7.93;0.60;;;;;;;6.43;78.43;100935.91;7390992;19;20531;-68
2021/12/11 03:31:57;;;;;;;7.32;0.50;;;;;;;6.45;78.23;100931.38;7391781;19;20401;-67
2021/12/11 03:34:28;;;;;;;8.75;0.60;;;;;;;6.48;78.40;100932.06;7394627;19;20011;-67
2021/12/11 03:36:56;;;;;;;10.13;2.22;;;;;;;6.48;78.30;100929.47;7387530;19;20034;-67
2021/12/11 03:39:32;;;;;;;9.20;1.02;;;;;;;6.50;79.64;100917.94;7393464;19;20018;-67
2021/12/11 03:42:04;;;;;;;6.93;0.60;;;;;;;6.51;78.72;100909.13;7390030;19;20026;-69
2021/12/11 03:44:33;;;;;;;5.15;1.00;;;;;;;6.55;79.02;100915.78;7391600;19;20491;-68
2021/12/11 03:47:09;;;;;;;8.82;0.70;;;;;;;6.57;78.79;100916.47;7389258;19;20038;-69
2021/12/11 03:49:36;;;;;;;6.22;0.55;;;;;;;6.57;78.15;100929.53;7391139;19;20045;-69
2021/12/11 03:52:08;;;;;;;6.80;0.73;;;;;;;6.56;78.32;100924.44;7393963;19;20619;-68
2021/12/11 03:54:37;;;;;;;6.65;0.50;;;;;;;6.56;78.47;100927.88;7393137;19;20034;-69
2021/12/11 03:57:06;;;;;;;6.00;0.50;;;;;;;6.58;77.81;100930.38;7394465;19;20027;-68
2021/12/11 03:59:34;;;;;;;3.55;0.50;;;;;;;6.59;78.37;100932.88;7386486;19;20030;-69
2021/12/11 04:02:06;;;;;;;5.10;0.50;;;;;;;6.59;78.65;100925.03;7390264;19;20018;-69
2021/12/11 04:04:40;;;;;;;5.32;0.57;;;;;;;6.58;78.98;100922.53;7391393;19;20034;-68
2021/12/11 04:07:11;;;;;;;3.80;0.47;;;;;;;6.57;79.08;100934.78;7392475;19;20048;-69
2021/12/11 04:09:40;;;;;;;7.60;0.70;;;;;;;6.52;78.81;100939.53;7389513;19;20504;-69
2021/12/11 04:12:08;;;;;;;6.53;0.52;;;;;;;6.50;79.16;100935.41;7395326;19;20011;-68
2021/12/11 04:14:40;;;;;;;4.38;0.40;;;;;;;6.49;79.05;100937.19;7391720;19;20010;-67
2021/12/11 04:17:09;;;;;;;10.07;0.77;;;;;;;6.47;78.69;100953.94;7393231;19;20014;-69
2021/12/11 04:19:38;;;;;;;5.82;0.40;;;;;;;6.46;78.57;100963.56;7391675;19;20041;-67
2021/12/11 04:22:07;;;;;;;3.00;1.10;;;;;;;6.42;79.31;100965.59;7388926;19;20007;-68
2021/12/11 04:24:41;;;;;;;5.50;0.60;;;;;;;6.40;79.55;100964.03;7391981;19;20010;-68
2021/12/11 04:27:11;;;;;;;6.72;0.47;;;;;;;6.38;79.37;100969.41;7389115;19;20354;-69
2021/12/11 04:29:39;;;;;;;7.90;1.05;;;;;;;6.38;79.53;100972.03;7387245;19;20027;-69
2021/12/11 04:32:07;;;;;;;8.27;0.52;;;;;;;6.36;80.06;100976.53;7391860;19;20368;-67
2021/12/11 04:34:37;;;;;;;7.68;0.88;;;;;;;6.38;79.78;100981.63;7388450;19;20015;-68
2021/12/11 04:37:17;;;;;;;4.93;0.57;;;;;;;6.38;80.11;100982.47;7388796;19;20015;-68
2021/12/11 04:39:48;;;;;;;8.60;0.50;;;;;;;6.36;79.00;100983.53;7390124;19;20028;-67
2021/12/11 04:42:31;;;;;;;4.88;0.63;;;;;;;6.36;79.54;100979.13;7388435;19;20027;-68
2021/12/11 04:44:58;;;;;;;8.60;0.80;;;;;;;6.37;79.21;100982.59;7389709;19;20051;-69
2021/12/11 04:50:06;;;;;;;10.82;1.23;;;;;;;6.38;79.71;100981.63;7390434;19;20452;-68
2021/12/11 04:52:34;;;;;;;7.35;1.40;;;;;;;6.36;79.72;100981.75;7388413;19;20400;-68
2021/12/11 05:10:57;;;;;;;8.40;0.55;;;;;;;6.38;81.72;101000.75;7386621;19;20373;-68
2021/12/11 05:13:27;;;;;;;3.38;0.40;;;;;;;6.39;80.64;101002.44;7389931;19;20038;-69
2021/12/11 05:16:00;;;;;;;13.88;2.63;;;;;;;6.40;81.14;101001.44;7386991;19;20006;-68
2021/12/11 05:18:29;;;;;;;7.50;0.88;;;;;;;6.48;83.79;101003.47;7388949;19;20095;-69
2021/12/11 05:21:00;;;;;;;3.53;0.73;;;;;;;6.47;81.90;101014.88;7391120;19;20038;-68
2021/12/11 05:23:28;;;;;;;12.45;0.98;;;;;;;6.46;80.90;101013.22;7388093;19;20034;-67
2021/12/11 05:25:57;;;;;;;6.57;0.63;;;;;;;6.47;80.28;101012.25;7386240;19;20022;-68
2021/12/11 05:28:24;;;;;;;3.80;0.60;;;;;;;6.47;79.92;101014.03;7387483;19;20011;-68
2021/12/11 05:30:53;;;;;;;10.20;0.88;;;;;;;6.48;80.22;101013.94;7386213;19;20418;-69
2021/12/11 05:33:22;;;;;;;6.85;0.70;;;;;;;6.52;79.98;101017.94;7388457;19;20116;-67
2021/12/11 05:35:49;;;;;;;6.90;0.50;;;;;;;6.56;79.94;101031.59;7388102;19;20023;-68
2021/12/11 05:38:19;;;;;;;8.85;0.95;;;;;;;6.56;80.18;101035.03;7386790;19;20006;-68
2021/12/11 05:40:53;;;;;;;4.15;0.70;;;;;;;6.56;79.81;101039.44;7389585;19;20030;-68
2021/12/11 05:43:21;;;;;;;5.10;0.50;;;;;;;6.57;80.23;101049.78;7388720;19;20014;-69
2021/12/11 05:45:48;;;;;;;6.53;0.75;;;;;;;6.55;79.72;101054.31;7385606;19;20006;-67
2021/12/11 05:48:16;;;;;;;6.68;0.80;;;;;;;6.54;79.44;101054.44;7386865;19;20038;-68
2021/12/11 05:50:47;;;;;;;3.83;0.40;;;;;;;6.52;79.43;101048.47;7385864;19;20014;-66
2021/12/11 05:53:16;;;;;;;8.80;0.75;;;;;;;6.51;79.59;101059.88;7389606;19;20010;-68
2021/12/11 05:55:46;;;;;;;6.72;0.75;;;;;;;6.49;79.81;101062.63;7384866;19;20389;-70
2021/12/11 05:58:22;;;;;;;6.57;0.68;;;;;;;6.52;79.77;101064.16;7390142;19;20120;-67
2021/12/11 06:00:54;;;;;;;5.85;0.98;;;;;;;6.49;79.77;101057.41;7386103;19;20719;-68
2021/12/11 06:03:21;;;;;;;7.60;1.02;;;;;;;6.51;80.23;101071.16;7388051;19;20042;-67
2021/12/11 06:05:48;;;;;;;7.30;0.55;;;;;;;6.53;79.97;101058.00;7386441;19;20010;-67
2021/12/11 06:08:14;;;;;;;3.67;0.50;;;;;;;6.56;80.34;101061.19;7385813;19;20007;-69
2021/12/11 06:10:42;;;;;;;7.82;1.40;;;;;;;6.59;80.79;101053.13;7387259;19;20023;-68
2021/12/11 06:13:09;;;;;;;11.63;1.38;;;;;;;6.62;81.97;101058.09;7387145;19;20018;-69
2021/12/11 06:15:38;;;;;;;7.93;0.65;;;;;;;6.63;81.29;101064.16;7385368;19;20047;-68
2021/12/11 06:18:07;;;;;;;9.25;0.93;;;;;;;6.60;80.02;101072.25;7385496;19;20007;-69
2021/12/11 06:20:34;;;;;;;4.88;0.50;;;;;;;6.56;79.98;101069.03;7384662;19;20456;-68
2021/12/11 06:23:06;;;;;;;8.20;0.50;;;;;;;6.56;80.10;101069.03;7385836;19;20527;-68
2021/12/11 06:25:34;;;;;;;6.45;0.60;;;;;;;6.55;79.62;101070.00;7386161;19;20362;-67
2021/12/11 06:28:04;;;;;;;10.50;0.50;;;;;;;6.54;79.48;101070.94;7386729;19;20036;-69
2021/12/11 06:30:32;;;;;;;6.57;0.80;;;;;;;6.56;79.60;101078.66;7384988;19;20011;-67
2021/12/11 06:33:00;;;;;;;5.22;0.60;;;;;;;6.51;79.53;101092.06;7388828;19;20078;-69
2021/12/11 06:35:34;;;;;;;5.30;0.68;;;;;;;6.52;80.01;101100.75;7384264;19;20413;-67
2021/12/11 06:38:03;;;;;;;6.95;0.60;;;;;;;6.51;80.24;101099.91;7385189;19;20006;-67
2021/12/11 06:40:30;;;;;;;7.80;0.88;;;;;;;6.53;80.32;101099.81;7386922;19;20014;-68
2021/12/11 06:42:58;;;;;;;4.45;0.80;;;;;;;6.56;80.13;101103.00;7385222;19;20010;-69
2021/12/11 06:45:26;;;;;;;8.45;0.98;;;;;;;6.61;80.99;101102.63;7384931;19;20484;-69
2021/12/11 06:47:54;;;;;;;7.72;0.55;;;;;;;6.64;80.09;101102.41;7386625;19;20723;-69
2021/12/11 06:50:22;;;;;;;7.15;0.80;;;;;;;6.67;80.09;101108.22;7386617;19;20014;-68
2021/12/11 06:52:49;;;;;;;6.82;0.75;;;;;;;6.70;79.95;101099.31;7384555;19;20014;-69
2021/12/11 06:55:17;;;;;;;8.02;0.60;;;;;;;6.70;79.29;101108.00;7384229;19;20015;-68
2021/12/11 06:57:46;;;;;;;6.25;0.50;;;;;;;6.71;79.72;101103.56;7385602;19;20038;-67
2021/12/11 07:00:16;;;;;;;3.45;0.73;;;;;;;6.71;79.92;101104.41;7385290;19;20134;-68
2021/12/11 07:02:43;;;;;;;10.30;0.90;;;;;;;6.70;79.88;101105.38;7383114;19;20011;-68
2021/12/11 07:05:11;;;;;;;8.50;2.10;;;;;;;6.68;79.85;101109.91;7388241;19;20010;-69
2021/12/11 07:07:41;;;;;;;7.85;1.25;;;;;;;6.71;80.73;101104.41;7388501;19;20034;-68
2021/12/11 07:10:11;;;;;;;8.10;0.80;;;;;;;6.71;80.18;101120.09;7383026;19;20015;-68
2021/12/11 07:12:39;;;;;;;5.38;2.67;;;;;;;6.73;80.26;101126.06;7383717;19;20515;-68
2021/12/11 07:15:10;;;;;;;6.28;0.73;;;;;;;6.77;80.62;101124.84;7385144;19;20052;-69
2021/12/11 07:17:40;;;;;;;8.67;3.27;;;;;;;6.79;80.08;101125.56;7386204;19;20018;-68
2021/12/11 07:20:10;;;;;;;8.63;1.08;;;;;;;6.80;79.70;101116.78;7390472;19;20010;-68
2021/12/11 07:22:40;;;;;;;6.97;0.77;;;;;;;6.81;79.77;101118.41;7391907;19;20048;-68
2021/12/11 07:25:16;;;;;;;6.07;0.65;;;;;;;6.80;79.24;101113.34;7390974;19;20015;-69
2021/12/11 07:27:43;;;;;;;10.23;0.82;;;;;;;6.82;79.95;101122.69;7392269;19;20010;-68
2021/12/11 07:30:11;;;;;;;8.40;1.10;;;;;;;6.83;79.68;101111.28;7392062;19;20011;-69
2021/12/11 07:32:38;;;;;;;6.65;1.15;;;;;;;6.85;79.85;101109.41;7398294;19;20010;-67
2021/12/11 07:35:07;;;;;;;9.48;0.63;;;;;;;6.87;79.80;101122.34;7395359;19;20002;-68
2021/12/11 07:37:34;;;;;;;6.28;0.80;;;;;;;6.87;79.68;101133.63;7390767;19;20044;-68
2021/12/11 07:40:02;;;;;;;9.20;0.80;;;;;;;6.87;79.63;101146.69;7390035;19;21408;-67
2021/12/11 07:42:29;;;;;;;11.05;1.02;;;;;;;6.89;79.71;101149.22;7393586;19;20018;-69
2021/12/11 07:44:56;;;;;;;4.53;0.57;;;;;;;6.88;80.03;101160.63;7396780;19;20014;-70
2021/12/11 07:47:23;;;;;;;8.10;0.65;;;;;;;6.92;79.90;101159.41;7389436;19;20040;-68
2021/12/11 07:49:51;;;;;;;5.47;0.80;;;;;;;6.94;79.71;101157.53;7393336;19;20014;-69
2021/12/11 07:52:17;;;;;;;8.45;0.70;;;;;;;6.94;79.57;101157.53;7390675;19;20031;-69
2021/12/11 07:54:44;;;;;;;10.40;0.80;;;;;;;6.98;79.57;101158.09;7393926;19;20034;-68
2021/12/11 07:57:11;;;;;;;8.35;0.90;;;;;;;6.98;79.18;101158.94;7391448;19;20006;-69
2021/12/11 07:59:38;;;;;;;5.38;0.70;;;;;;;6.98;78.99;101165.94;7390698;19;20027;-69
2021/12/11 08:02:05;;;;;;;7.35;0.68;;;;;;;6.93;79.13;101178.56;7392912;19;20018;-69
2021/12/11 08:04:34;;;;;;;6.40;0.70;;;;;;;6.92;79.71;101180.34;7389834;19;20006;-69
2021/12/11 08:07:02;;;;;;;11.48;0.60;;;;;;;6.94;79.61;101188.06;7389453;19;20035;-68
2021/12/11 08:09:28;;;;;;;10.57;1.63;;;;;;;6.93;79.64;101178.56;7392775;19;20010;-70
2021/12/11 08:11:56;;;;;;;9.00;1.25;;;;;;;6.96;80.03;101173.09;7391145;19;20030;-68
2021/12/11 08:14:24;;;;;;;18.17;5.30;;;;;;;7.00;80.00;101175.34;7394163;19;20023;-68
2021/12/11 08:16:54;;;;;;;10.73;1.50;;;;;;;7.03;81.14;101174.25;7391675;19;20014;-68
2021/12/11 08:19:23;;;;;;;6.80;1.02;;;;;;;7.01;80.86;101178.81;7391672;19;20010;-68
2021/12/11 08:21:53;;;;;;;9.52;1.10;;;;;;;7.00;80.37;101182.38;7392621;19;20010;-69
2021/12/11 08:24:21;;;;;;;8.93;1.00;;;;;;;6.97;79.60;101187.81;7390295;19;20113;-68
2021/12/11 08:26:51;;;;;;;15.77;1.95;;;;;;;6.96;79.96;101189.59;7389187;19;20360;-69
2021/12/11 08:29:19;;;;;;;5.10;1.70;;;;;;;6.98;81.64;101186.88;7388511;19;20031;-69
2021/12/11 08:31:49;;;;;;;6.47;1.63;;;;;;;6.95;80.97;101195.81;7390535;19;20011;-68
2021/12/11 08:34:17;;;;;;;9.57;1.50;;;;;;;6.95;80.75;101187.97;7389850;19;20048;-68
2021/12/11 08:36:44;;;;;;;10.52;2.00;;;;;;;6.95;80.47;101192.34;7386105;19;20784;-69
2021/12/11 08:39:13;;;;;;;8.88;1.50;;;;;;;6.97;80.22;101193.88;7388334;19;20018;-69
2021/12/11 08:41:42;;;;;;;12.00;3.97;;;;;;;7.00;80.59;101198.91;7389483;19;20467;-69
2021/12/11 08:44:14;;;;;;;7.43;0.98;;;;;;;6.99;81.05;101205.06;7388754;19;20021;-68
2021/12/11 08:46:48;;;;;;;7.50;0.90;;;;;;;6.94;80.53;101204.59;7392557;19;20011;-69
2021/12/11 08:49:24;;;;;;;10.27;1.48;;;;;;;6.95;80.74;101208.88;7387960;19;20332;-70
2021/12/11 08:52:05;;;;;;;9.85;3.25;;;;;;;6.96;80.55;101214.94;7393150;19;20353;-70
2021/12/11 08:54:33;;;;;;;13.05;2.20;;;;;;;6.98;81.20;101226.09;7391417;19;20044;-67
2021/12/11 08:57:04;;;;;;;8.90;0.93;;;;;;;6.97;80.67;101230.50;7391695;19;20010;-70
2021/12/11 08:59:33;;;;;;;5.32;0.80;;;;;;;6.96;80.50;101236.69;7392433;19;20011;-68
2021/12/11 09:02:05;;;;;;;10.75;3.15;;;;;;;6.95;80.59;101231.59;7388041;19;20002;-69
2021/12/11 09:04:48;;;;;;;8.40;1.33;;;;;;;7.03;81.21;101234.44;7389034;19;20007;-68
2021/12/11 09:07:27;;;;;;;6.10;0.90;;;;;;;7.03;79.72;101231.81;7389628;19;20011;-71
2021/12/11 09:09:59;;;;;;;8.45;1.15;;;;;;;7.08;80.08;101230.50;7387698;19;20027;-69
2021/12/11 09:12:33;;;;;;;9.02;0.95;;;;;;;7.10;79.35;101239.06;7389534;19;20366;-67
2021/12/11 09:15:05;;;;;;;8.82;2.35;;;;;;;7.14;79.63;101255.34;7389384;19;20371;-69
2021/12/11 09:17:38;;;;;;;6.93;1.05;;;;;;;7.16;80.12;101254.28;7391305;19;20018;-69
2021/12/11 09:20:21;;;;;;;5.10;0.98;;;;;;;7.21;79.53;101264.41;7388748;19;20007;-69
2021/12/11 09:22:52;;;;;;;;;;;;;;;7.22;79.09;101260.81;7391503;19;20018;-67
2021/12/11 09:25:27;;;;;;;4.10;0.57;;;;;;;7.17;79.24;101260.34;7386794;19;19952;-68
2021/12/11 09:28:05;;;;;;;6.90;0.85;;;;;;;7.18;79.06;101264.63;7389529;19;20011;-67
2021/12/11 09:30:44;;;;;;;12.70;4.57;;;;;;;7.19;79.39;101263.69;7387235;19;20090;-69
2021/12/11 09:33:16;;;;;;;11.20;1.50;;;;;;;7.28;80.78;101271.63;7392362;19;20021;-69
2021/12/11 09:35:54;;;;;;;7.90;0.98;;;;;;;7.35;79.86;101273.78;7385994;19;20022;-68
2021/12/11 09:38:27;;;;;;;10.95;1.45;;;;;;;7.39;80.12;101278.66;7387179;19;20014;-69
2021/12/11 09:40:54;;;;;;;9.98;1.05;;;;;;;7.43;79.99;101287.91;7389084;19;20019;-70
2021/12/11 09:43:40;;;;;;;12.15;1.90;;;;;;;7.47;79.33;101288.50;7385821;19;20014;-70
2021/12/11 09:46:11;;;;;;;8.00;1.10;;;;;;;7.52;79.64;101286.34;7385967;19;20006;-68
2021/12/11 09:48:40;;;;;;;7.65;2.85;;;;;;;7.54;78.35;101282.66;7385486;19;20015;-69
2021/12/11 09:51:12;;;;;;;9.25;2.33;;;;;;;7.56;78.63;101290.41;7385390;19;20102;-67
2021/12/11 09:53:44;;;;;;;8.18;1.25;;;;;;;7.56;77.94;101288.63;7389332;19;20011;-68
2021/12/11 09:56:17;;;;;;;10.82;3.78;;;;;;;7.57;77.88;101297.28;7386190;19;20014;-69
2021/12/11 09:58:45;;;;;;;;;;;;;;;7.60;77.79;101303.13;7385886;19;20018;-68
2021/12/11 10:01:19;;;;;;;11.77;2.22;;;;;;;7.60;77.43;101295.28;7385533;19;19914;-68
2021/12/11 10:03:56;;;;;;;12.00;3.15;;;;;;;7.59;77.61;101285.75;7389464;19;20074;-71
2021/12/11 10:06:51;;;;;;;10.93;2.92;;;;;;;7.62;77.56;101282.03;7391222;19;20488;-67
2021/12/11 10:09:21;;;;;;;13.70;2.88;;;;;;;7.66;77.84;101275.63;7388573;19;20018;-69
2021/12/11 10:12:08;;;;;;;7.88;1.58;;;;;;;7.74;77.87;101270.59;7385229;19;20034;-67
2021/12/11 10:14:40;;;;;;;15.48;2.63;;;;;;;7.73;77.21;101269.75;7388387;19;20010;-68
2021/12/11 10:17:11;;;;;;;10.38;2.65;;;;;;;7.76;77.98;101265.25;7385634;19;20011;-68
2021/12/11 10:19:40;;;;;;;9.68;1.63;;;;;;;7.79;77.72;101270.22;7386186;19;20010;-68
2021/12/11 10:22:27;;;;;;;12.40;2.78;;;;;;;7.80;77.68;101279.75;7386839;19;20038;-69
2021/12/11 10:24:55;;;;;;;13.35;1.63;;;;;;;7.83;77.58;101289.97;7388231;19;20360;-69
2021/12/11 10:27:25;;;;;;;16.33;1.77;;;;;;;7.82;77.70;101288.31;7383877;19;20035;-67
2021/12/11 10:29:53;;;;;;;9.00;1.42;;;;;;;7.87;77.91;101281.75;7384364;19;20031;-69
2021/12/11 10:32:28;;;;;;;11.07;2.10;;;;;;;7.93;77.79;101278.63;7387783;19;20010;-68
2021/12/11 10:34:59;;;;;;;8.85;2.17;;;;;;;7.95;77.57;101281.13;7384112;19;20017;-69
2021/12/11 10:37:35;;;;;;;11.32;1.92;;;;;;;7.98;77.69;101289.56;7383502;19;20018;-69
2021/12/11 10:40:16;;;;;;;9.40;2.72;;;;;;;8.04;78.45;101286.44;7385454;19;20018;-71
2021/12/11 10:42:45;;;;;;;8.27;1.80;;;;;;;8.15;78.82;101286.41;7383990;19;20583;-69
2021/12/11 10:45:14;;;;;;;12.95;3.17;;;;;;;8.27;77.46;101288.97;7385331;19;20035;-69
2021/12/11 10:47:48;;;;;;;6.68;1.90;;;;;;;8.32;78.57;101300.78;7388088;19;20011;-70
2021/12/11 10:50:29;;;;;;;9.40;1.60;;;;;;;8.35;78.25;101303.13;7385286;19;20018;-69
2021/12/11 10:52:57;;;;;;;9.60;3.22;;;;;;;8.38;78.57;101304.69;7389701;19;20002;-70
2021/12/11 10:55:30;;;;;;;12.25;1.98;;;;;;;8.45;77.76;101297.97;7391866;19;20568;-68
2021/12/11 10:58:01;;;;;;;10.27;1.70;;;;;;;8.51;76.85;101307.94;7390767;19;20468;-69
2021/12/11 11:00:39;;;;;;;11.73;2.53;;;;;;;8.56;76.61;101304.00;7395968;19;20456;-68
2021/12/11 11:03:08;;;;;;;9.70;1.67;;;;;;;8.61;75.80;101303.59;7394284;19;20054;-68
2021/12/11 11:05:36;;;;;;;7.70;1.85;;;;;;;8.68;77.08;101294.28;7389542;19;20010;-68
2021/12/11 11:08:06;;;;;;;10.68;2.90;;;;;;;8.72;76.04;101290.41;7391210;19;20044;-69
2021/12/11 11:10:38;;;;;;;13.52;2.85;;;;;;;8.76;75.24;101283.94;7391659;19;20050;-70
2021/12/11 11:13:11;;;;;;;9.55;1.98;;;;;;;8.75;74.86;101289.31;7392232;19;20006;-69
2021/12/11 11:15:39;;;;;;;7.43;1.17;;;;;;;8.79;74.66;101288.94;7389816;19;20026;-69
2021/12/11 11:18:09;;;;;;;12.45;3.20;;;;;;;8.85;75.17;101287.56;7390641;19;20034;-68
2021/12/11 11:20:42;;;;;;;14.18;2.78;;;;;;;8.87;74.96;101286.50;7392027;19;20014;-70
2021/12/11 11:23:09;;;;;;;12.77;1.95;;;;;;;8.93;74.86;101291.22;7389338;19;20025;-69
2021/12/11 11:25:41;;;;;;;10.05;1.60;;;;;;;8.94;74.49;101289.41;7389836;19;20010;-70
2021/12/11 11:28:13;;;;;;;7.80;1.65;;;;;;;9.02;75.15;101295.69;7395140;19;20038;-71
2021/12/11 11:30:50;;;;;;;7.72;1.50;;;;;;;9.09;75.38;101301.25;7387264;19;20011;-68
2021/12/11 11:33:19;;;;;;;13.10;1.20;;;;;;;9.10;74.35;101305.50;7389151;19;20019;-69
2021/12/11 11:35:48;;;;;;;11.65;2.03;;;;;;;9.12;73.83;101305.41;7392438;19;20013;-69
2021/12/11 11:38:22;;;;;;;14.75;1.85;;;;;;;9.20;74.79;101305.56;7390919;19;20030;-68
2021/12/11 11:40:54;;;;;;;15.85;2.05;;;;;;;9.22;74.56;101306.25;7390893;19;20011;-69
2021/12/11 11:43:22;;;;;;;12.45;2.30;;;;;;;9.26;75.11;101305.03;7390164;19;20535;-70
2021/12/11 11:45:52;;;;;;;7.57;1.45;;;;;;;9.27;74.64;101307.53;7389877;19;20014;-69
2021/12/11 11:48:27;;;;;;;11.57;1.90;;;;;;;9.35;76.04;101312.09;7390159;19;20014;-67
2021/12/11 11:51:17;;;;;;;10.10;1.98;;;;;;;9.35;75.14;101299.81;7389448;19;20548;-68
2021/12/11 11:53:47;;;;;;;8.15;1.30;;;;;;;9.39;75.50;101303.84;7390346;19;20014;-70
2021/12/11 11:56:17;;;;;;;12.60;1.90;;;;;;;9.41;74.65;101314.22;7391342;19;20022;-67
2021/12/11 11:58:45;;;;;;;19.08;3.53;;;;;;;9.45;75.34;101310.34;7389195;19;20046;-68
2021/12/11 12:01:18;;;;;;;14.25;1.75;;;;;;;9.48;74.29;101312.72;7385626;19;20146;-68
2021/12/11 12:03:46;;;;;;;12.63;2.25;;;;;;;9.56;75.08;101304.16;7390736;19;20014;-71
2021/12/11 12:06:22;;;;;;;10.43;1.48;;;;;;;9.58;75.47;101303.06;7388088;19;20015;-70
2021/12/11 12:08:51;;;;;;;8.77;1.42;;;;;;;9.62;74.21;101308.88;7376807;19;20559;-68
2021/12/11 12:11:18;;;;;;;11.77;1.70;;;;;;;9.61;74.63;101288.81;7385580;19;20057;-70
2021/12/11 12:13:45;;;;;;;9.20;1.85;;;;;;;9.62;75.40;101293.13;7392280;19;20014;-68